Time;durP1;ratioP1;P1;durP2;ratioP2;P2;SDS_P1;SDS_P2;PMS_P1;PMS_P2;Temp;Humidity;BMP_temperature;BMP_pressure;BME280_temperature;BME280_humidity;BME280_pressure;Samples;Min_cycle;Max_cycle;Signal;HPM_P1;HPM_P2
2021/09/17 00:00:07;;;;;;;;;12.25;11.00;;;;;24.01;44.94;101321.59;5077537;28;45443;-62
2021/09/17 00:02:33;;;;;;;;;13.50;12.00;;;;;24.02;44.83;101319.81;5078064;27;45372;-63
2021/09/17 00:04:58;;;;;;;;;12.75;11.50;;;;;24.02;44.90;101318.00;5077856;28;45359;-60
2021/09/17 00:07:24;;;;;;;;;13.25;12.00;;;;;24.02;44.51;101315.38;5059212;28;46514;-64
2021/09/17 00:09:50;;;;;;;;;12.50;11.75;;;;;24.02;44.57;101315.38;5077371;28;45334;-60
2021/09/17 00:12:16;;;;;;;;;15.50;14.00;;;;;24.01;45.06;101312.81;5077351;28;45295;-61
2021/09/17 00:14:42;;;;;;;;;14.25;11.75;;;;;24.01;45.07;101310.19;5077736;28;45402;-62
2021/09/17 00:17:07;;;;;;;;;13.50;13.50;;;;;24.01;44.60;101308.38;5077208;28;46798;-58
2021/09/17 00:19:33;;;;;;;;;13.25;12.25;;;;;24.02;45.06;101309.22;5077597;28;45344;-61
2021/09/17 00:21:58;;;;;;;;;11.75;10.75;;;;;24.00;45.25;101301.38;5077463;28;45310;-63
2021/09/17 00:24:24;;;;;;;;;12.50;12.50;;;;;24.01;45.03;101304.88;5077542;28;45430;-62
2021/09/17 00:26:49;;;;;;;;;8.00;7.25;;;;;24.01;45.21;101300.41;5077171;28;45441;-64
2021/09/17 00:29:15;;;;;;;;;13.00;12.00;;;;;24.00;44.64;101301.38;5075846;28;45258;-63
2021/09/17 00:31:40;;;;;;;;;15.25;15.00;;;;;24.00;45.22;101300.53;5058987;28;45322;-61
2021/09/17 00:34:06;;;;;;;;;16.50;13.50;;;;;24.00;45.32;101304.00;5077663;28;45540;-57
2021/09/17 00:36:31;;;;;;;;;13.75;13.75;;;;;24.00;44.83;101303.19;5076984;28;46103;-58
2021/09/17 00:38:57;;;;;;;;;14.75;13.00;;;;;24.00;44.68;101297.88;5076972;28;45245;-63
2021/09/17 00:41:22;;;;;;;;;13.50;12.50;;;;;23.99;45.45;101298.81;5077074;28;45474;-61
2021/09/17 00:43:47;;;;;;;;;12.25;12.25;;;;;23.96;45.12;101289.28;5077302;28;45320;-63
2021/09/17 00:46:13;;;;;;;;;12.50;12.50;;;;;23.97;45.06;101291.00;5076885;28;46654;-63
2021/09/17 00:48:38;;;;;;;;;15.25;12.25;;;;;23.99;44.79;101294.38;5076907;28;45643;-55
2021/09/17 00:51:03;;;;;;;;;12.00;12.00;;;;;23.99;44.84;101288.22;5077264;28;45362;-63
2021/09/17 00:53:33;;;;;;;;;12.00;12.00;;;;;23.97;45.04;101283.06;5077083;28;45518;-58
2021/09/17 00:55:59;;;;;;;;;17.25;14.00;;;;;23.99;44.81;101286.44;5075578;28;46484;-60
2021/09/17 00:58:24;;;;;;;;;14.75;12.50;;;;;23.98;45.40;101279.44;5076608;28;45248;-61
2021/09/17 01:00:50;;;;;;;;;14.75;13.75;;;;;23.97;44.96;101275.09;5076533;28;45185;-59
2021/09/17 01:03:15;;;;;;;;;14.50;12.50;;;;;23.97;45.16;101274.25;5076566;28;45373;-59
2021/09/17 01:05:40;;;;;;;;;12.00;9.75;;;;;23.97;44.95;101275.09;5075227;28;45616;-58
2021/09/17 01:08:06;;;;;;;;;10.00;10.00;;;;;23.97;45.16;101269.81;5076853;28;45357;-61
2021/09/17 01:10:32;;;;;;;;;13.00;12.50;;;;;23.97;45.06;101269.81;5076608;28;45519;-60
2021/09/17 01:12:58;;;;;;;;;13.75;13.00;;;;;23.97;44.95;101268.94;5076945;28;45213;-56
2021/09/17 01:15:24;;;;;;;;;13.50;13.50;;;;;23.97;45.36;101269.81;5076423;28;46442;-54
2021/09/17 01:17:49;;;;;;;;;12.00;12.00;;;;;23.96;45.24;101268.09;5076479;28;45403;-56
2021/09/17 01:20:19;;;;;;;;;11.25;10.25;;;;;23.97;45.44;101263.66;5076476;28;45916;-55
2021/09/17 01:22:46;;;;;;;;;10.75;10.75;;;;;23.97;44.92;101261.88;5076542;28;45304;-59
2021/09/17 01:25:14;;;;;;;;;13.75;13.75;;;;;23.97;45.10;101264.53;5076227;28;45446;-55
2021/09/17 01:27:45;;;;;;;;;11.25;11.25;;;;;23.96;44.97;101257.53;5076559;28;45834;-53
2021/09/17 01:30:12;;;;;;;;;14.50;13.00;;;;;23.97;45.49;101255.72;5076425;28;45308;-54
2021/09/17 01:32:41;;;;;;;;;11.50;9.25;;;;;23.97;45.33;101253.06;5076775;28;45462;-54
2021/09/17 01:35:09;;;;;;;;;11.00;10.50;;;;;23.96;45.29;101246.94;5076496;28;46123;-56
2021/09/17 01:37:34;;;;;;;;;11.00;9.75;;;;;23.95;45.77;101250.53;5076184;28;45220;-52
2021/09/17 01:39:59;;;;;;;;;12.00;11.00;;;;;23.95;45.13;101247.88;5076316;28;45334;-59
2021/09/17 01:42:25;;;;;;;;;10.75;10.25;;;;;23.94;45.03;101244.31;5076420;28;45173;-54
2021/09/17 01:44:50;;;;;;;;;10.75;10.75;;;;;23.94;45.07;101240.84;5075986;28;46687;-58
2021/09/17 01:47:15;;;;;;;;;11.25;10.25;;;;;23.94;45.26;101241.69;5075033;28;45361;-57
2021/09/17 01:49:41;;;;;;;;;12.00;11.00;;;;;23.94;45.43;101233.75;5075149;28;45402;-52
2021/09/17 01:52:06;;;;;;;;;9.50;9.50;;;;;23.95;45.41;101237.28;5076731;28;45271;-54
2021/09/17 01:54:32;;;;;;;;;9.75;9.75;;;;;23.93;45.10;101231.19;5075822;28;45748;-56
2021/09/17 01:56:57;;;;;;;;;8.75;8.75;;;;;23.94;45.10;101228.44;5075941;28;45433;-61
2021/09/17 01:59:23;;;;;;;;;13.50;12.50;;;;;23.94;44.97;101223.16;5075867;28;45304;-64
2021/09/17 02:01:48;;;;;;;;;10.75;10.75;;;;;23.93;44.93;101225.91;5076377;28;45185;-59
2021/09/17 02:04:14;;;;;;;;;12.50;10.00;;;;;23.94;45.11;101222.31;5075777;28;46158;-56
2021/09/17 02:06:40;;;;;;;;;11.00;11.00;;;;;23.94;45.59;101227.59;5076221;28;45367;-64
2021/09/17 02:09:06;;;;;;;;;11.50;11.00;;;;;23.93;45.04;101216.16;5076063;28;45455;-63
2021/09/17 02:11:31;;;;;;;;;9.75;9.00;;;;;23.93;45.03;101210.03;5076151;28;45334;-63
2021/09/17 02:14:01;;;;;;;;;10.75;10.75;;;;;23.93;45.39;101208.22;5075765;28;46553;-60
2021/09/17 02:16:26;;;;;;;;;9.50;9.00;;;;;23.94;45.45;101214.38;5078005;28;45804;-61
2021/09/17 02:18:51;;;;;;;;;10.50;9.00;;;;;23.92;45.34;101203.03;5079381;28;45331;-63
2021/09/17 02:21:21;;;;;;;;;9.75;9.75;;;;;23.92;45.25;101205.66;5079493;28;45644;-58
2021/09/17 02:23:47;;;;;;;;;12.50;9.75;;;;;23.93;45.31;101199.44;5078939;28;47057;-63
2021/09/17 02:26:13;;;;;;;;;10.50;10.25;;;;;23.92;45.14;101203.03;5079234;28;45758;-55
2021/09/17 02:28:39;;;;;;;;;12.00;11.50;;;;;23.92;45.44;101197.72;5079438;28;45289;-57
2021/09/17 02:31:05;;;;;;;;;11.25;11.25;;;;;23.91;45.72;101196.03;5079106;28;45347;-58
2021/09/17 02:33:31;;;;;;;;;16.00;12.25;;;;;23.91;45.57;101196.03;5078918;28;47371;-57
2021/09/17 02:35:57;;;;;;;;;10.00;10.00;;;;;23.90;45.56;101197.84;5078871;28;45924;-57
2021/09/17 02:38:22;;;;;;;;;11.00;10.00;;;;;23.91;45.39;101199.53;5079036;28;45458;-59
2021/09/17 02:40:48;;;;;;;;;10.25;10.25;;;;;23.90;45.65;101191.69;5079098;28;45353;-59
2021/09/17 02:43:14;;;;;;;;;12.00;12.00;;;;;23.90;45.67;101195.19;5078868;28;45357;-51
2021/09/17 02:45:39;;;;;;;;;10.25;10.25;;;;;23.91;45.65;101190.72;5079096;28;45327;-59
2021/09/17 02:48:05;;;;;;;;;9.25;9.25;;;;;23.89;45.65;101185.53;5078845;28;45410;-60
2021/09/17 02:50:31;;;;;;;;;10.50;9.75;;;;;23.91;45.47;101191.59;5078712;28;45627;-56
2021/09/17 02:52:57;;;;;;;;;11.50;10.75;;;;;23.89;45.32;101182.03;5078479;28;46999;-52
2021/09/17 02:55:22;;;;;;;;;12.75;10.25;;;;;23.91;45.85;101185.44;5078400;28;45348;-59
2021/09/17 02:57:47;;;;;;;;;11.00;11.00;;;;;23.90;45.35;101183.75;5078762;28;45394;-57
2021/09/17 03:00:13;;;;;;;;;11.00;11.00;;;;;23.89;45.71;101179.38;5078897;28;45554;-58
2021/09/17 03:02:39;;;;;;;;;13.00;12.00;;;;;23.90;45.40;101178.44;5078390;28;46461;-56
2021/09/17 03:05:04;;;;;;;;;10.75;10.75;;;;;23.89;45.70;101176.75;5078311;28;45389;-55
2021/09/17 03:07:30;;;;;;;;;10.75;10.25;;;;;23.89;45.41;101176.75;5078470;28;45864;-54
2021/09/17 03:09:55;;;;;;;;;10.75;10.75;;;;;23.90;45.76;101183.75;5078620;28;45331;-53
2021/09/17 03:12:21;;;;;;;;;10.50;9.75;;;;;23.89;45.74;101177.59;5078264;28;46563;-56
2021/09/17 03:14:46;;;;;;;;;11.50;11.25;;;;;23.87;45.55;101173.34;5078291;28;45312;-51
2021/09/17 03:17:11;;;;;;;;;13.00;11.25;;;;;23.87;45.69;101168.03;5078629;28;45347;-56
2021/09/17 03:19:37;;;;;;;;;13.50;12.00;;;;;23.88;45.51;101160.03;5078513;28;45344;-54
2021/09/17 03:22:03;;;;;;;;;13.50;10.50;;;;;23.88;45.53;101156.50;5078037;28;46476;-60
2021/09/17 03:24:29;;;;;;;;;12.25;11.25;;;;;23.88;45.58;101153.84;5078153;28;45411;-54
2021/09/17 03:26:54;;;;;;;;;8.75;8.75;;;;;23.88;45.78;101156.50;5078052;28;45384;-52
2021/09/17 03:29:20;;;;;;;;;10.50;9.00;;;;;23.85;45.99;101149.63;5078153;28;45396;-52
2021/09/17 03:31:45;;;;;;;;;12.00;10.25;;;;;23.85;45.64;101149.63;5078298;28;45346;-54
2021/09/17 03:34:11;;;;;;;;;10.25;10.25;;;;;23.86;45.75;101151.31;5078106;28;45327;-54
2021/09/17 03:36:42;;;;;;;;;12.75;12.00;;;;;23.86;45.79;101148.69;5078073;28;45501;-56
2021/09/17 03:39:13;;;;;;;;;11.50;9.50;;;;;23.86;45.94;101155.78;5076839;28;45616;-60
2021/09/17 03:41:40;;;;;;;;;12.25;10.00;;;;;23.84;45.58;101147.09;5077747;28;45509;-55
2021/09/17 03:44:06;;;;;;;;;10.25;10.25;;;;;23.84;45.55;101147.09;5077841;28;45803;-52
2021/09/17 03:46:32;;;;;;;;;8.75;8.75;;;;;23.86;45.46;101150.50;5077880;28;45260;-53
2021/09/17 03:48:57;;;;;;;;;13.50;11.00;;;;;23.85;45.92;101154.09;5078086;28;45395;-53
2021/09/17 03:51:24;;;;;;;;;11.00;9.75;;;;;23.84;45.75;101157.69;5077562;28;45375;-58
2021/09/17 03:53:50;;;;;;;;;11.50;9.50;;;;;23.84;45.77;101155.88;5077657;28;45477;-53
2021/09/17 03:56:15;;;;;;;;;10.00;10.00;;;;;23.83;45.94;101148.88;5078111;28;45436;-51
2021/09/17 03:58:41;;;;;;;;;9.50;9.50;;;;;23.83;45.71;101145.38;5077872;28;45433;-53
2021/09/17 04:01:06;;;;;;;;;9.00;9.00;;;;;23.84;45.97;101158.50;5077360;28;46580;-53
2021/09/17 04:03:32;;;;;;;;;13.75;10.75;;;;;23.80;45.88;101153.50;5077445;28;45363;-53
2021/09/17 04:05:57;;;;;;;;;11.50;10.75;;;;;23.84;45.99;101149.75;5077350;28;45451;-55
2021/09/17 04:08:23;;;;;;;;;11.25;11.00;;;;;23.81;45.91;101148.16;5077681;28;45414;-57
2021/09/17 04:10:48;;;;;;;;;13.25;12.25;;;;;23.81;45.85;101149.94;5077449;28;45460;-59
2021/09/17 04:13:14;;;;;;;;;11.75;10.75;;;;;23.81;45.78;101149.94;5077618;28;45300;-58
2021/09/17 04:15:39;;;;;;;;;12.00;12.00;;;;;23.82;46.21;101151.63;5077627;28;45291;-50
2021/09/17 04:18:04;;;;;;;;;12.50;12.25;;;;;23.80;46.01;101156.16;5077700;28;45598;-50
2021/09/17 04:20:30;;;;;;;;;11.25;11.25;;;;;23.79;45.64;101152.69;5058985;28;47692;-52
2021/09/17 04:22:55;;;;;;;;;11.00;10.00;;;;;23.78;45.98;101162.41;5077303;28;45275;-51
2021/09/17 04:25:21;;;;;;;;;13.25;10.75;;;;;23.77;46.06;101158.06;5077373;28;45244;-50
2021/09/17 04:27:47;;;;;;;;;12.25;11.00;;;;;23.76;45.67;101156.34;5077721;28;45247;-54
2021/09/17 04:30:14;;;;;;;;;13.00;13.00;;;;;23.77;46.04;101152.75;5058812;28;47086;-51
2021/09/17 04:32:40;;;;;;;;;10.75;10.75;;;;;23.77;46.00;101159.88;5077089;28;45863;-49
2021/09/17 04:35:06;;;;;;;;;11.00;11.00;;;;;23.77;46.38;101158.06;5077206;28;45467;-55
2021/09/17 04:37:31;;;;;;;;;12.75;10.25;;;;;23.77;46.01;101151.94;5077009;28;45379;-58
2021/09/17 04:39:57;;;;;;;;;11.00;11.00;;;;;23.76;45.93;101148.41;5076563;28;46687;-51
2021/09/17 04:42:22;;;;;;;;;11.25;10.50;;;;;23.75;45.88;101152.03;5077061;28;45437;-55
2021/09/17 04:44:48;;;;;;;;;12.50;12.50;;;;;23.76;46.13;101151.06;5077623;28;45398;-52
2021/09/17 04:47:13;;;;;;;;;12.50;12.00;;;;;23.76;46.12;101151.06;5077473;28;45612;-52
2021/09/17 04:49:39;;;;;;;;;10.50;10.25;;;;;23.75;45.80;101151.16;5076686;28;46410;-51
2021/09/17 04:52:04;;;;;;;;;11.25;9.50;;;;;23.75;46.21;101152.03;5076940;28;45240;-51
2021/09/17 04:54:29;;;;;;;;;11.50;11.00;;;;;23.74;46.17;101152.97;5077048;28;45721;-52
2021/09/17 04:56:55;;;;;;;;;13.25;11.00;;;;;23.75;46.05;101149.38;5076987;28;45470;-53
2021/09/17 04:59:21;;;;;;;;;11.75;10.00;;;;;23.74;46.05;101149.47;5076440;28;46186;-52
2021/09/17 05:01:47;;;;;;;;;12.50;12.00;;;;;23.73;46.40;101147.75;5077081;28;45280;-51
2021/09/17 05:04:12;;;;;;;;;15.50;11.00;;;;;23.73;46.39;101145.97;5076629;28;45419;-49
2021/09/17 05:06:38;;;;;;;;;12.75;12.75;;;;;23.73;46.46;101151.28;5075776;28;45531;-54
2021/09/17 05:09:03;;;;;;;;;11.00;11.00;;;;;23.74;46.27;101150.34;5076534;28;46205;-52
2021/09/17 05:11:28;;;;;;;;;12.75;12.75;;;;;23.72;46.01;101146.06;5076736;28;45530;-48
2021/09/17 05:13:54;;;;;;;;;13.50;13.50;;;;;23.71;46.14;101142.59;5076684;28;45479;-50
2021/09/17 05:16:19;;;;;;;;;14.50;13.50;;;;;23.73;46.31;101147.75;5077100;28;45480;-53
2021/09/17 05:18:46;;;;;;;;;11.75;11.75;;;;;23.73;45.96;101145.13;5076380;28;46501;-52
2021/09/17 05:21:12;;;;;;;;;15.00;13.25;;;;;23.72;46.51;101141.63;5076451;28;45784;-50
2021/09/17 05:23:38;;;;;;;;;13.50;11.75;;;;;23.71;46.39;101145.22;5076607;28;45404;-64
2021/09/17 05:26:03;;;;;;;;;14.00;11.50;;;;;23.71;46.38;101142.59;5076577;28;45312;-64
2021/09/17 05:28:30;;;;;;;;;14.00;13.75;;;;;23.71;46.52;101150.53;5076125;28;46699;-55
2021/09/17 05:30:55;;;;;;;;;13.00;13.00;;;;;23.71;46.36;101147.88;5076268;28;45277;-55
2021/09/17 05:33:21;;;;;;;;;11.00;11.00;;;;;23.70;46.23;101140.88;5076737;28;46037;-64
2021/09/17 05:35:46;;;;;;;;;13.00;12.00;;;;;23.69;45.98;101139.19;5058447;28;45295;-51
2021/09/17 05:38:12;;;;;;;;;11.00;11.00;;;;;23.70;46.52;101135.59;5057892;28;45386;-51
2021/09/17 05:40:37;;;;;;;;;13.50;10.75;;;;;23.69;46.33;101139.19;5076239;28;45387;-51
2021/09/17 05:43:02;;;;;;;;;10.75;10.25;;;;;23.71;46.43;101147.00;5076332;28;45263;-53
2021/09/17 05:45:28;;;;;;;;;10.00;9.75;;;;;23.69;46.83;101141.81;5076475;28;45247;-55
2021/09/17 05:47:53;;;;;;;;;11.25;11.25;;;;;23.68;46.41;101141.94;5075916;28;45358;-53
2021/09/17 05:50:18;;;;;;;;;12.50;11.25;;;;;23.69;46.62;101141.00;5077119;28;45564;-50
2021/09/17 05:52:44;;;;;;;;;11.75;11.75;;;;;23.68;46.40;101142.78;5061589;28;45378;-51
2021/09/17 05:55:10;;;;;;;;;12.25;12.25;;;;;23.68;46.37;101140.13;5079884;28;45612;-51
2021/09/17 05:57:35;;;;;;;;;13.00;10.25;;;;;23.68;46.44;101137.47;5079451;28;46184;-57
2021/09/17 06:00:01;;;;;;;;;11.00;10.75;;;;;23.69;46.65;101141.81;5079304;28;45697;-49
2021/09/17 06:02:26;;;;;;;;;15.50;14.00;;;;;23.70;46.45;101140.03;5079597;28;45313;-51
2021/09/17 06:04:51;;;;;;;;;12.75;11.00;;;;;23.69;46.92;101139.19;5080088;28;45493;-52
2021/09/17 06:07:17;;;;;;;;;14.75;14.00;;;;;23.71;46.33;101147.00;5079391;28;45432;-52
2021/09/17 06:09:42;;;;;;;;;12.00;11.25;;;;;23.71;46.58;101147.00;5079251;28;45404;-50
2021/09/17 06:12:08;;;;;;;;;13.00;13.00;;;;;23.70;46.80;101146.16;5079573;28;45330;-50
2021/09/17 06:14:33;;;;;;;;;14.25;11.25;;;;;23.70;46.32;101132.94;5079594;28;45589;-55
2021/09/17 06:16:59;;;;;;;;;11.75;11.75;;;;;23.70;46.35;101143.53;5077938;28;46391;-49
2021/09/17 06:19:25;;;;;;;;;11.25;11.00;;;;;23.71;46.80;101139.06;5079745;28;45273;-50
2021/09/17 06:21:50;;;;;;;;;12.50;12.50;;;;;23.71;46.75;101139.94;5079654;28;45308;-49
2021/09/17 06:24:15;;;;;;;;;12.50;11.25;;;;;23.69;46.56;101139.19;5078049;28;45258;-53
2021/09/17 06:26:41;;;;;;;;;12.50;12.00;;;;;23.69;46.56;101135.69;5078739;28;46032;-55
2021/09/17 06:29:07;;;;;;;;;11.50;10.50;;;;;23.71;46.54;101133.78;5078897;28;45321;-52
2021/09/17 06:31:35;;;;;;;;;15.00;14.25;;;;;23.69;46.69;101128.59;5079199;28;45280;-53
2021/09/17 06:34:00;;;;;;;;;12.75;12.75;;;;;23.68;46.10;101123.41;5079333;28;45390;-51
2021/09/17 06:36:25;;;;;;;;;13.00;13.00;;;;;23.69;46.50;101127.75;5078919;28;45619;-52
2021/09/17 06:38:51;;;;;;;;;15.75;13.50;;;;;23.66;46.44;101127.94;5079131;28;45454;-49
2021/09/17 06:41:17;;;;;;;;;14.50;13.00;;;;;23.63;46.73;101123.72;5078985;28;45401;-51
2021/09/17 06:43:42;;;;;;;;;12.00;12.00;;;;;23.61;46.54;101126.44;5079129;28;45575;-52
2021/09/17 06:46:08;;;;;;;;;14.00;11.75;;;;;23.60;46.79;101118.59;5078645;28;46146;-51
2021/09/17 06:48:33;;;;;;;;;15.25;13.00;;;;;23.59;46.46;101127.50;5078761;28;45399;-53
2021/09/17 06:50:59;;;;;;;;;17.00;13.50;;;;;23.56;47.12;101123.25;5078484;28;45392;-50
2021/09/17 06:53:25;;;;;;;;;13.75;11.75;;;;;23.56;46.46;101123.25;5079129;28;45363;-48
2021/09/17 06:55:50;;;;;;;;;15.00;12.25;;;;;23.56;46.90;101122.38;5078530;28;46419;-56
2021/09/17 06:58:17;;;;;;;;;11.00;11.00;;;;;23.55;46.82;101125.97;5078650;28;45241;-54
2021/09/17 07:00:43;;;;;;;;;12.75;11.50;;;;;23.55;46.31;101123.31;5077859;28;45474;-50
2021/09/17 07:03:08;;;;;;;;;12.00;11.00;;;;;23.52;46.52;101115.59;5078691;28;45544;-55
2021/09/17 07:05:34;;;;;;;;;12.75;12.75;;;;;23.55;46.58;101116.25;5078456;28;46194;-52
2021/09/17 07:08:04;;;;;;;;;13.00;13.00;;;;;23.58;46.93;101120.50;5078481;28;45420;-51
2021/09/17 07:10:31;;;;;;;;;10.25;10.25;;;;;23.56;46.76;101117.97;5078604;28;45220;-53
2021/09/17 07:12:56;;;;;;;;;13.00;13.00;;;;;23.57;46.62;101113.50;5079127;28;45525;-51
2021/09/17 07:15:22;;;;;;;;;12.00;12.00;;;;;23.57;46.87;101114.38;5078229;28;45406;-48
2021/09/17 07:17:47;;;;;;;;;11.50;11.00;;;;;23.58;47.11;101115.19;5078404;28;45273;-49
2021/09/17 07:20:13;;;;;;;;;11.50;11.50;;;;;23.59;46.59;101119.53;5078412;28;45219;-51
2021/09/17 07:22:38;;;;;;;;;11.00;10.00;;;;;23.60;46.54;101113.31;5060314;28;45454;-51
2021/09/17 07:25:04;;;;;;;;;11.50;10.25;;;;;23.61;46.53;101115.00;5078130;28;45697;-47
2021/09/17 07:27:30;;;;;;;;;15.00;14.75;;;;;23.61;46.70;101115.00;5078100;28;45410;-48
2021/09/17 07:29:57;;;;;;;;;12.25;11.75;;;;;23.62;46.64;101116.72;5078262;28;45509;-48
2021/09/17 07:32:22;;;;;;;;;9.75;9.75;;;;;23.62;46.55;101116.72;5078267;28;45609;-50
2021/09/17 07:34:48;;;;;;;;;11.00;10.00;;;;;23.63;46.50;101116.59;5077947;28;46193;-50
2021/09/17 07:37:13;;;;;;;;;9.25;9.25;;;;;23.63;46.27;101118.41;5078122;28;45257;-48
2021/09/17 07:39:39;;;;;;;;;9.25;9.00;;;;;23.65;46.42;101113.00;5077978;28;45401;-56
2021/09/17 07:42:05;;;;;;;;;10.50;9.50;;;;;23.65;46.32;101119.13;5078031;28;45215;-51
2021/09/17 07:44:31;;;;;;;;;9.75;9.75;;;;;23.66;46.24;101122.66;5077617;28;46490;-48
2021/09/17 07:46:58;;;;;;;;;16.00;12.50;;;;;23.67;46.29;101124.34;5078100;28;45553;-49
2021/09/17 07:49:23;;;;;;;;;15.75;11.75;;;;;23.68;46.63;101118.13;5077744;28;45232;-54
2021/09/17 07:51:49;;;;;;;;;10.00;9.75;;;;;23.69;46.09;101128.59;5078077;28;45153;-56
2021/09/17 07:54:14;;;;;;;;;12.25;11.25;;;;;23.69;46.02;101133.88;5077661;28;46197;-51
2021/09/17 07:56:40;;;;;;;;;11.00;9.00;;;;;23.69;46.23;101133.88;5059516;28;45991;-47
2021/09/17 07:59:05;;;;;;;;;8.00;8.00;;;;;23.71;46.56;101129.34;5077618;28;45406;-48
2021/09/17 08:01:31;;;;;;;;;11.25;10.00;;;;;23.70;46.52;101129.47;5077904;28;45479;-51
2021/09/17 08:03:56;;;;;;;;;11.50;9.25;;;;;23.70;46.14;101130.28;5077855;28;45328;-54
2021/09/17 08:06:21;;;;;;;;;11.25;9.00;;;;;23.70;45.91;101127.66;5077593;28;45316;-55
2021/09/17 08:08:48;;;;;;;;;8.75;8.50;;;;;23.71;45.68;101123.19;5077624;28;45299;-46
2021/09/17 08:11:13;;;;;;;;;11.75;9.25;;;;;23.72;46.10;101123.13;5077708;28;45367;-55
2021/09/17 08:13:39;;;;;;;;;9.50;8.75;;;;;23.73;46.19;101123.94;5076221;28;45478;-53
2021/09/17 08:16:04;;;;;;;;;9.75;9.75;;;;;23.74;45.73;101126.50;5077337;28;45293;-50
2021/09/17 08:18:30;;;;;;;;;12.75;10.00;;;;;23.73;46.00;101127.47;5077843;28;45323;-59
2021/09/17 08:20:58;;;;;;;;;7.50;7.50;;;;;23.74;45.85;101121.22;5077806;28;45552;-49
2021/09/17 08:23:24;;;;;;;;;9.00;7.75;;;;;23.76;45.59;101129.06;5077133;28;47372;-48
2021/09/17 08:25:50;;;;;;;;;11.75;9.25;;;;;23.77;45.80;101126.28;5077208;28;46066;-53
2021/09/17 08:28:17;;;;;;;;;9.25;9.00;;;;;23.78;45.70;101127.16;5077255;28;45529;-56
2021/09/17 08:30:43;;;;;;;;;10.25;10.25;;;;;23.77;45.42;101121.00;5077355;28;45508;-51
2021/09/17 08:33:08;;;;;;;;;10.75;10.75;;;;;23.78;45.96;101128.00;5076958;28;45524;-48
2021/09/17 08:35:34;;;;;;;;;12.25;10.75;;;;;23.81;46.01;101128.75;5077057;28;45435;-51
2021/09/17 08:37:59;;;;;;;;;12.50;10.00;;;;;23.81;45.71;101123.47;5077457;28;45247;-47
2021/09/17 08:40:28;;;;;;;;;10.00;9.25;;;;;23.82;45.77;101119.88;5077316;28;45384;-49
2021/09/17 08:42:55;;;;;;;;;8.50;8.50;;;;;23.83;45.64;101121.56;5076802;28;46588;-50
2021/09/17 08:45:20;;;;;;;;;10.25;8.75;;;;;23.83;46.13;101124.22;5076888;28;45363;-50
2021/09/17 08:47:49;;;;;;;;;10.75;10.00;;;;;23.82;45.52;101123.34;5077092;28;45381;-58
2021/09/17 08:50:14;;;;;;;;;11.25;9.00;;;;;23.84;45.71;101123.25;5077186;28;45591;-51
2021/09/17 08:52:40;;;;;;;;;11.00;11.00;;;;;23.84;45.60;101125.91;5058513;28;46244;-51
2021/09/17 08:55:06;;;;;;;;;10.00;9.00;;;;;23.84;45.58;101121.47;5076719;28;45332;-52
2021/09/17 08:57:31;;;;;;;;;10.25;9.00;;;;;23.84;45.24;101115.31;5077226;28;45509;-51
2021/09/17 08:59:56;;;;;;;;;9.00;8.00;;;;;23.85;45.51;101124.97;5076880;28;45170;-48
2021/09/17 09:02:29;;;;;;;;;8.75;8.75;;;;;23.85;45.50;101119.66;5076652;28;45634;-49
2021/09/17 09:05:00;;;;;;;;;7.00;7.00;;;;;23.85;45.34;101117.88;5076572;28;45248;-48
2021/09/17 09:07:26;;;;;;;;;7.25;6.50;;;;;23.85;45.21;101125.81;5076896;28;45356;-53
2021/09/17 09:09:52;;;;;;;;;9.25;7.25;;;;;23.86;45.74;101121.38;5076759;28;45335;-47
2021/09/17 09:12:18;;;;;;;;;10.50;7.00;;;;;23.85;45.18;101114.38;5076435;28;46035;-48
2021/09/17 09:14:43;;;;;;;;;8.00;8.00;;;;;23.84;44.80;101116.16;5076638;28;45406;-50
2021/09/17 09:17:09;;;;;;;;;9.75;8.50;;;;;23.86;44.91;101118.72;5076732;28;45362;-47
2021/09/17 09:19:35;;;;;;;;;10.00;8.75;;;;;23.86;45.16;101113.44;5076831;28;45300;-48
2021/09/17 09:22:04;;;;;;;;;7.00;7.00;;;;;23.88;45.03;101111.50;5076750;28;46476;-47
2021/09/17 09:24:39;;;;;;;;;9.50;7.00;;;;;23.87;45.29;101112.47;5077556;28;45334;-47
2021/09/17 09:27:09;;;;;;;;;7.50;6.50;;;;;23.89;45.08;101116.72;5080479;28;45453;-50
2021/09/17 09:29:36;;;;;;;;;7.75;7.75;;;;;23.91;45.02;101103.38;5080327;28;45451;-48
2021/09/17 09:32:02;;;;;;;;;6.00;6.00;;;;;23.92;45.04;101111.22;5080379;28;45479;-51
2021/09/17 09:34:51;;;;;;;;;7.50;7.50;;;;;23.93;44.66;101107.63;5080090;28;45248;-54
2021/09/17 09:37:19;;;;;;;;;9.00;7.00;;;;;23.94;45.17;101105.81;5080195;28;45400;-51
2021/09/17 09:40:12;;;;;;;;;7.50;7.50;;;;;23.94;44.70;101106.66;5080245;28;45458;-51
2021/09/17 09:42:40;;;;;;;;;9.75;8.75;;;;;23.94;44.56;101105.81;5079761;28;47335;-47
2021/09/17 09:45:17;;;;;;;;;9.00;5.25;;;;;23.95;44.66;101107.56;5079824;28;45721;-52
2021/09/17 09:47:51;;;;;;;;;8.00;8.00;;;;;23.94;44.46;101096.06;5079976;28;45258;-52
2021/09/17 09:50:24;;;;;;;;;8.75;8.00;;;;;23.95;44.84;101102.28;5078865;28;45477;-50
2021/09/17 09:53:00;;;;;;;;;7.00;7.00;;;;;23.98;44.26;101101.22;5079771;28;46373;-50
2021/09/17 09:55:26;;;;;;;;;8.25;7.00;;;;;23.96;44.06;101103.09;5079646;28;45613;-54
2021/09/17 09:57:54;;;;;;;;;6.50;6.50;;;;;23.97;43.88;101108.31;5079683;28;45301;-52
2021/09/17 10:00:20;;;;;;;;;6.25;6.00;;;;;23.97;44.12;101095.09;5079752;28;45549;-50
2021/09/17 10:02:46;;;;;;;;;7.50;7.50;;;;;23.98;44.25;101101.22;5079487;28;46546;-50
2021/09/17 10:05:14;;;;;;;;;6.00;6.00;;;;;23.96;43.90;101101.31;5061241;28;45455;-51
2021/09/17 10:07:39;;;;;;;;;7.25;7.25;;;;;23.97;43.87;101091.56;5079647;28;45257;-47
2021/09/17 10:10:08;;;;;;;;;7.00;7.00;;;;;23.97;43.96;101089.78;5079783;28;45553;-47
2021/09/17 10:12:34;;;;;;;;;7.50;7.50;;;;;23.98;44.08;101088.81;5061322;28;46764;-47
2021/09/17 10:15:00;;;;;;;;;7.25;7.25;;;;;23.99;44.16;101090.50;5079293;28;45443;-51
2021/09/17 10:17:28;;;;;;;;;8.25;7.50;;;;;23.99;44.32;101087.84;5079478;28;45339;-47
2021/09/17 10:19:55;;;;;;;;;9.75;8.25;;;;;23.99;44.14;101082.56;5079557;28;45561;-48
2021/09/17 10:22:43;;;;;;;;;7.00;7.00;;;;;23.99;44.40;101085.22;5079208;28;45983;-50
2021/09/17 10:25:22;;;;;;;;;9.25;9.25;;;;;24.00;43.62;101078.97;5079269;28;45664;-49
2021/09/17 10:28:07;;;;;;;;;8.50;8.50;;;;;24.00;44.25;101076.31;5061110;28;45419;-49
2021/09/17 10:30:35;;;;;;;;;7.00;7.00;;;;;24.01;43.81;101080.66;5078278;28;45497;-48
2021/09/17 10:33:01;;;;;;;;;7.50;7.00;;;;;24.02;43.74;101077.06;5078902;28;46664;-48
2021/09/17 10:35:40;;;;;;;;;7.00;6.00;;;;;24.03;43.77;101084.06;5078583;28;45296;-48
2021/09/17 10:38:10;;;;;;;;;7.00;7.00;;;;;24.02;43.64;101077.06;5079120;28;45465;-50
2021/09/17 10:41:03;;;;;;;;;6.50;6.25;;;;;24.04;43.95;101079.59;5079444;28;45525;-53
2021/09/17 10:43:31;;;;;;;;;8.00;7.00;;;;;24.04;43.56;101085.78;5060678;28;48428;-48
2021/09/17 10:46:04;;;;;;;;;6.75;6.75;;;;;24.04;43.25;101080.47;5078692;28;45846;-51
2021/09/17 10:48:51;;;;;;;;;6.50;6.50;;;;;24.04;43.83;101069.88;5078993;28;45222;-51
2021/09/17 10:51:37;;;;;;;;;6.25;6.25;;;;;24.05;43.53;101068.06;5078895;28;45513;-54
2021/09/17 10:54:04;;;;;;;;;8.75;6.75;;;;;24.06;43.84;101067.13;5078664;28;45667;-54
2021/09/17 10:56:49;;;;;;;;;9.00;7.50;;;;;24.06;43.57;101075.06;5078710;28;45695;-48
2021/09/17 10:59:27;;;;;;;;;7.25;6.00;;;;;24.04;43.49;101063.72;5078449;28;45416;-52
2021/09/17 11:02:09;;;;;;;;;7.50;7.00;;;;;24.06;43.25;101068.00;5077927;28;45608;-50
2021/09/17 11:04:36;;;;;;;;;7.25;7.25;;;;;24.05;43.36;101074.22;5078897;28;46912;-54
2021/09/17 11:07:17;;;;;;;;;7.75;7.25;;;;;24.06;43.45;101075.94;5078602;28;45381;-54
2021/09/17 11:09:49;;;;;;;;;9.50;6.50;;;;;24.05;43.25;101068.94;5078512;28;45253;-54
2021/09/17 11:12:19;;;;;;;;;5.25;5.00;;;;;24.04;43.43;101069.88;5078932;28;45478;-49